createdAt,value
2022-11-20T00:01:20.153Z,21.73
2022-11-20T00:03:50.774Z,22.10
2022-11-20T00:06:21.592Z,21.73
2022-11-20T00:08:49.160Z,23.60
2022-11-20T00:11:21.608Z,23.23
2022-11-20T00:13:50.266Z,20.67
2022-11-20T00:16:19.483Z,23.50
2022-11-20T00:18:46.677Z,23.27
2022-11-20T00:21:19.355Z,20.93
2022-11-20T00:23:46.536Z,22.23
2022-11-20T00:26:18.203Z,20.37
2022-11-20T00:28:45.797Z,20.10
2022-11-20T00:31:15.145Z,24.47
2022-11-20T00:33:43.643Z,21.10
2022-11-20T00:36:12.184Z,22.77
2022-11-20T00:38:38.833Z,23.50
2022-11-20T00:41:08.208Z,22.10
2022-11-20T00:43:35.396Z,23.33
2022-11-20T00:46:07.676Z,24.77
2022-11-20T00:48:34.492Z,21.70
2022-11-20T00:51:01.732Z,28.30
2022-11-20T00:53:28.966Z,22.93
2022-11-20T00:56:04.293Z,22.70
2022-11-20T00:58:33.540Z,19.47
2022-11-20T01:01:13.756Z,20.47
2022-11-20T01:03:42.814Z,21.90
2022-11-20T01:06:15.645Z,25.93
2022-11-20T01:08:42.816Z,23.53
2022-11-20T01:11:15.685Z,25.20
2022-11-20T01:13:43.495Z,22.87
2022-11-20T01:16:12.106Z,29.90
2022-11-20T01:18:40.796Z,22.37
2022-11-20T01:21:31.753Z,25.00
2022-11-20T01:23:59.465Z,22.17
2022-11-20T01:26:33.730Z,24.73
2022-11-20T01:29:01.008Z,31.13
2022-11-20T01:31:33.491Z,29.83
2022-11-20T01:34:02.631Z,29.13
2022-11-20T01:36:30.929Z,27.00
2022-11-20T01:39:00.731Z,26.23
2022-11-20T01:41:48.059Z,26.93
2022-11-20T01:44:17.551Z,26.73
2022-11-20T01:46:56.703Z,24.93
2022-11-20T01:49:51.288Z,27.20
2022-11-20T01:52:28.182Z,30.17
2022-11-20T01:55:01.924Z,29.33
2022-11-20T01:57:30.928Z,25.80
2022-11-20T02:00:10.776Z,27.53
2022-11-20T02:02:42.931Z,26.53
2022-11-20T02:05:32.828Z,30.37
2022-11-20T02:08:00.449Z,29.10
2022-11-20T02:10:28.289Z,29.87
2022-11-20T02:13:13.508Z,30.23
2022-11-20T02:15:41.243Z,30.90
2022-11-20T02:18:08.129Z,32.00
2022-11-20T02:20:34.827Z,32.67
2022-11-20T02:23:09.979Z,30.17
2022-11-20T02:25:38.024Z,32.73
2022-11-20T02:28:05.131Z,35.90
2022-11-20T02:30:31.867Z,27.93
2022-11-20T02:32:59.215Z,28.17
2022-11-20T02:35:25.834Z,28.20
2022-11-20T02:37:55.649Z,29.13
2022-11-20T02:40:23.025Z,30.13
2022-11-20T02:42:53.484Z,32.07
2022-11-20T02:45:20.258Z,34.30
2022-11-20T02:47:47.017Z,34.40
2022-11-20T02:50:13.893Z,32.37
2022-11-20T02:52:40.553Z,29.80
2022-11-20T02:55:07.960Z,29.97
2022-11-20T02:57:34.767Z,36.73
2022-11-20T03:00:01.732Z,30.43
2022-11-20T03:02:31.709Z,29.77
2022-11-20T03:04:58.523Z,36.53
2022-11-20T03:07:25.455Z,37.10
2022-11-20T03:09:52.239Z,37.07
2022-11-20T03:12:18.987Z,42.73
2022-11-20T03:14:50.207Z,40.93
2022-11-20T03:17:19.548Z,39.07
2022-11-20T03:19:46.390Z,38.50
2022-11-20T03:22:13.294Z,38.23
2022-11-20T03:24:40.119Z,37.70
2022-11-20T03:27:06.889Z,42.77
2022-11-20T03:29:33.781Z,43.20
2022-11-20T03:32:00.478Z,37.03
2022-11-20T03:34:27.219Z,36.57
2022-11-20T03:36:53.887Z,44.10
2022-11-20T03:39:21.029Z,38.83
2022-11-20T03:41:48.158Z,43.43
2022-11-20T03:44:14.944Z,42.67
2022-11-20T03:46:41.627Z,39.73
2022-11-20T03:49:08.621Z,45.17
2022-11-20T03:51:36.820Z,40.77
2022-11-20T03:54:06.934Z,38.50
2022-11-20T03:56:36.026Z,42.93
2022-11-20T03:59:02.905Z,37.73
2022-11-20T04:01:32.306Z,42.03
2022-11-20T04:04:00.333Z,40.23
2022-11-20T04:06:29.566Z,36.73
2022-11-20T04:08:57.249Z,38.80
2022-11-20T04:11:29.164Z,44.17
2022-11-20T04:13:58.272Z,41.63
2022-11-20T04:16:26.224Z,37.10
2022-11-20T04:18:57.699Z,37.53
2022-11-20T04:21:25.421Z,39.10
2022-11-20T04:23:53.878Z,39.50
2022-11-20T04:26:21.873Z,44.77
2022-11-20T04:28:48.763Z,35.47
2022-11-20T04:31:24.122Z,38.57
2022-11-20T04:33:51.042Z,36.47
2022-11-20T04:36:25.937Z,37.20
2022-11-20T04:38:57.919Z,40.63
2022-11-20T04:41:27.324Z,39.03
2022-11-20T04:44:00.435Z,33.10
2022-11-20T04:46:28.555Z,31.60
2022-11-20T04:48:55.621Z,36.43
2022-11-20T04:51:22.664Z,32.80
2022-11-20T04:53:49.630Z,35.83
2022-11-20T04:56:16.790Z,31.23
2022-11-20T04:58:43.769Z,34.83
2022-11-20T05:01:16.473Z,33.30
2022-11-20T05:03:44.503Z,31.57
2022-11-20T05:06:13.526Z,31.90
2022-11-20T05:08:40.702Z,31.00
2022-11-20T05:11:15.980Z,26.27
2022-11-20T05:13:43.485Z,33.47
2022-11-20T05:16:16.051Z,30.83
2022-11-20T05:18:43.488Z,26.80
2022-11-20T05:21:14.104Z,27.90
2022-11-20T05:23:42.016Z,31.73
2022-11-20T05:26:14.497Z,25.63
2022-11-20T05:28:41.624Z,27.50
2022-11-20T05:31:14.130Z,25.00
2022-11-20T05:33:42.588Z,30.23
2022-11-20T05:36:10.352Z,30.07
2022-11-20T05:38:37.074Z,25.47
2022-11-20T05:41:08.100Z,27.17
2022-11-20T05:43:35.904Z,29.93
2022-11-20T05:46:03.194Z,29.23
2022-11-20T05:48:29.954Z,29.50
2022-11-20T05:50:59.042Z,28.47
2022-11-20T05:53:27.747Z,32.37
2022-11-20T05:56:07.249Z,25.20
2022-11-20T05:58:34.726Z,29.43
2022-11-20T06:01:18.333Z,30.93
2022-11-20T06:03:50.516Z,28.17
2022-11-20T06:06:18.587Z,28.50
2022-11-20T06:08:45.926Z,28.53
2022-11-20T06:11:14.126Z,30.20
2022-11-20T06:13:42.568Z,31.50
2022-11-20T06:16:10.513Z,27.97
2022-11-20T06:18:37.330Z,29.67
2022-11-20T06:21:09.574Z,28.27
2022-11-20T06:23:37.329Z,31.73
2022-11-20T06:26:12.250Z,30.67
2022-11-20T06:28:39.560Z,29.23
2022-11-20T06:31:07.653Z,27.57
2022-11-20T06:33:34.630Z,36.17
2022-11-20T06:36:05.889Z,30.63
2022-11-20T06:38:37.027Z,33.27
2022-11-20T06:41:05.204Z,34.47
2022-11-20T06:43:32.213Z,35.77
2022-11-20T06:46:00.299Z,37.37
2022-11-20T06:48:28.444Z,42.40
2022-11-20T06:50:55.329Z,42.60
2022-11-20T06:53:22.676Z,42.77
2022-11-20T06:55:50.192Z,47.23
2022-11-20T06:58:17.489Z,42.93
2022-11-20T07:00:44.723Z,46.53
2022-11-20T07:03:12.355Z,47.20
2022-11-20T07:05:39.621Z,44.10
2022-11-20T07:08:06.783Z,51.67
2022-11-20T07:10:34.284Z,45.47
2022-11-20T07:13:01.053Z,46.73
2022-11-20T07:15:28.314Z,56.40
2022-11-20T07:17:55.380Z,49.00
2022-11-20T07:20:22.334Z,44.80
2022-11-20T07:22:55.078Z,50.73
2022-11-20T07:25:21.876Z,45.17
2022-11-20T07:27:48.804Z,50.83
2022-11-20T07:30:16.720Z,48.73
2022-11-20T07:32:43.691Z,57.87
2022-11-20T07:35:10.747Z,52.17
2022-11-20T07:37:37.540Z,50.60
2022-11-20T07:40:04.856Z,54.47
2022-11-20T07:42:31.707Z,56.17
2022-11-20T07:45:01.179Z,48.47
2022-11-20T07:47:28.171Z,52.90
2022-11-20T07:49:55.230Z,52.73
2022-11-20T07:52:22.439Z,45.30
2022-11-20T07:54:49.274Z,51.97
2022-11-20T07:57:16.079Z,54.67
2022-11-20T07:59:42.914Z,56.83
2022-11-20T08:02:12.436Z,51.17
2022-11-20T08:04:39.597Z,53.60
2022-11-20T08:07:06.481Z,54.97
2022-11-20T08:09:33.879Z,53.77
2022-11-20T08:12:19.294Z,55.17
2022-11-20T08:14:46.040Z,56.37
2022-11-20T08:17:13.467Z,55.70
2022-11-20T08:19:40.271Z,55.03
2022-11-20T08:22:11.725Z,55.47
2022-11-20T08:24:43.811Z,51.70
2022-11-20T08:27:10.536Z,55.93
2022-11-20T08:29:40.456Z,58.10
2022-11-20T08:32:07.500Z,51.53
2022-11-20T08:34:34.671Z,48.10
2022-11-20T08:37:03.751Z,53.20
2022-11-20T08:39:30.659Z,55.20
2022-11-20T08:41:57.568Z,50.30
2022-11-20T08:44:25.103Z,49.60
2022-11-20T08:46:52.152Z,52.60
2022-11-20T08:49:19.402Z,55.23
2022-11-20T08:51:48.161Z,53.30
2022-11-20T08:54:15.056Z,54.67
2022-11-20T08:56:41.941Z,57.70
2022-11-20T08:59:43.772Z,52.90
2022-11-20T09:01:59.534Z,54.20
2022-11-20T09:04:26.611Z,53.63
2022-11-20T09:06:53.610Z,55.50
2022-11-20T09:09:21.681Z,55.97
2022-11-20T09:11:58.837Z,57.73
2022-11-20T09:14:30.299Z,45.80
2022-11-20T09:16:57.749Z,55.57
2022-11-20T09:19:35.516Z,53.17
2022-11-20T09:22:08.198Z,55.37
2022-11-20T09:24:35.263Z,55.93
2022-11-20T09:27:06.357Z,50.60
2022-11-20T09:29:33.361Z,49.47
2022-11-20T09:32:00.414Z,45.30
2022-11-20T09:34:31.338Z,55.77
2022-11-20T09:37:01.524Z,47.67
2022-11-20T09:39:35.290Z,48.97
2022-11-20T09:42:14.818Z,53.33
2022-11-20T09:44:58.754Z,45.10
2022-11-20T09:47:47.579Z,47.47
2022-11-20T09:50:28.184Z,58.57
2022-11-20T09:53:31.241Z,45.60
2022-11-20T09:56:05.070Z,49.77
2022-11-20T09:58:44.207Z,43.37
2022-11-20T10:01:15.936Z,54.43
2022-11-20T10:03:59.637Z,44.80
2022-11-20T10:06:33.197Z,43.03
2022-11-20T10:09:02.799Z,44.43
2022-11-20T10:11:50.251Z,38.80
2022-11-20T10:14:28.405Z,42.53
2022-11-20T10:17:03.496Z,46.07
2022-11-20T10:19:46.866Z,35.53
2022-11-20T10:22:39.303Z,35.33
2022-11-20T10:25:17.923Z,41.87
2022-11-20T10:27:53.966Z,42.30
2022-11-20T10:30:23.130Z,34.20
2022-11-20T10:33:03.642Z,36.80
2022-11-20T10:35:42.610Z,34.03
2022-11-20T10:39:02.173Z,35.07
2022-11-20T10:41:52.357Z,32.53
2022-11-20T10:44:56.372Z,24.53
2022-11-20T10:47:27.527Z,31.53
2022-11-20T10:50:05.174Z,28.33
2022-11-20T10:53:10.348Z,25.50
2022-11-20T10:55:52.319Z,26.13
2022-11-20T10:58:35.633Z,21.43
2022-11-20T11:01:17.641Z,26.13
2022-11-20T11:03:45.307Z,22.30
2022-11-20T11:06:37.298Z,24.90
2022-11-20T11:09:14.628Z,19.33
2022-11-20T11:11:41.687Z,16.87
2022-11-20T11:14:09.468Z,16.27
2022-11-20T11:16:40.855Z,15.13
2022-11-20T11:19:17.995Z,16.70
2022-11-20T11:21:58.223Z,21.87
2022-11-20T11:24:46.256Z,17.13
2022-11-20T11:27:17.515Z,18.33
2022-11-20T11:29:50.532Z,13.17
2022-11-20T11:32:23.028Z,14.00
2022-11-20T11:35:05.446Z,11.00
2022-11-20T11:37:37.464Z,12.93
2022-11-20T11:40:24.283Z,9.37
2022-11-20T11:42:59.446Z,7.17
2022-11-20T11:45:27.406Z,7.97
2022-11-20T11:47:57.304Z,7.90
2022-11-20T11:50:31.043Z,7.50
2022-11-20T11:53:11.671Z,8.17
2022-11-20T11:55:58.096Z,7.03
2022-11-20T11:58:30.131Z,10.13
2022-11-20T12:01:39.867Z,8.83
2022-11-20T12:04:29.909Z,4.60
2022-11-20T12:07:24.599Z,7.57
2022-11-20T12:09:56.139Z,7.43
2022-11-20T12:12:30.397Z,5.73
2022-11-20T12:15:01.175Z,9.40
2022-11-20T12:17:28.066Z,5.03
2022-11-20T12:19:55.452Z,9.60
2022-11-20T12:22:45.786Z,4.07
2022-11-20T12:25:29.926Z,6.87
2022-11-20T12:28:23.880Z,7.13
2022-11-20T12:31:26.111Z,11.57
2022-11-20T12:34:05.254Z,7.40
2022-11-20T12:36:39.160Z,3.70
2022-11-20T12:39:24.211Z,6.93
2022-11-20T12:42:36.930Z,7.27
2022-11-20T12:45:30.715Z,5.23
2022-11-20T12:48:02.831Z,5.10
2022-11-20T12:51:20.061Z,7.37
2022-11-20T12:54:06.312Z,5.53
2022-11-20T12:56:47.879Z,8.63
2022-11-20T12:59:49.547Z,7.83
2022-11-20T13:02:36.017Z,3.90
2022-11-20T13:05:03.863Z,6.13
2022-11-20T13:07:36.630Z,3.57
2022-11-20T13:10:23.775Z,9.23
2022-11-20T13:13:13.865Z,5.50
2022-11-20T13:16:12.461Z,4.83
2022-11-20T13:18:50.326Z,6.97
2022-11-20T13:21:20.652Z,5.03
2022-11-20T13:23:48.509Z,5.47
2022-11-20T13:26:24.547Z,6.90
2022-11-20T13:29:10.668Z,7.07
2022-11-20T13:31:43.927Z,8.00
2022-11-20T13:34:27.175Z,6.63
2022-11-20T13:36:56.680Z,6.60
2022-11-20T13:39:38.271Z,7.50
2022-11-20T13:42:15.552Z,8.57
2022-11-20T13:44:52.991Z,4.77
2022-11-20T13:47:27.713Z,6.40
2022-11-20T13:50:00.779Z,5.23
2022-11-20T13:52:55.826Z,6.27
2022-11-20T13:55:51.417Z,5.57
2022-11-20T13:58:21.776Z,6.00
2022-11-20T14:00:58.908Z,5.73
2022-11-20T14:04:04.158Z,3.63
2022-11-20T14:06:33.012Z,5.43
2022-11-20T14:09:03.700Z,7.73
2022-11-20T14:11:32.092Z,6.17
2022-11-20T14:14:09.522Z,7.50
2022-11-20T14:16:42.045Z,3.70
2022-11-20T14:22:40.164Z,5.23
2022-11-20T14:25:21.222Z,5.87
2022-11-20T14:28:17.278Z,2.83
2022-11-20T14:31:32.642Z,4.67
2022-11-20T14:36:54.512Z,2.47
2022-11-20T14:39:27.407Z,1.63
2022-11-20T14:42:00.966Z,4.00
2022-11-20T14:44:34.789Z,2.70
2022-11-20T14:47:03.961Z,1.73
2022-11-20T14:49:32.341Z,3.50
2022-11-20T14:52:10.532Z,4.13
2022-11-20T14:54:46.150Z,3.27
2022-11-20T14:57:32.385Z,5.40
2022-11-20T15:00:09.113Z,4.10
2022-11-20T15:03:07.604Z,3.37
2022-11-20T15:05:51.870Z,2.60
2022-11-20T15:08:22.401Z,2.73
2022-11-20T15:14:27.573Z,1.57
2022-11-20T15:16:55.149Z,2.73
2022-11-20T15:19:30.031Z,1.73
2022-11-20T15:21:57.656Z,2.13
2022-11-20T15:24:27.928Z,5.23
2022-11-20T15:26:58.131Z,2.20
2022-11-20T15:29:31.047Z,3.27
2022-11-20T15:31:58.072Z,2.70
2022-11-20T15:34:27.431Z,4.47
2022-11-20T15:36:56.783Z,4.37
2022-11-20T15:39:26.581Z,2.27
2022-11-20T15:41:53.724Z,3.23
2022-11-20T15:44:23.892Z,3.27
2022-11-20T15:46:51.460Z,6.10
2022-11-20T15:49:20.163Z,5.27
2022-11-20T15:51:52.205Z,4.30
2022-11-20T15:54:23.763Z,5.23
2022-11-20T15:56:54.390Z,8.73
2022-11-20T15:59:21.422Z,5.03
2022-11-20T16:01:51.636Z,6.63
2022-11-20T16:04:19.723Z,5.43
2022-11-20T16:06:47.934Z,9.07
2022-11-20T16:09:14.961Z,5.53
2022-11-20T16:11:41.889Z,4.83
2022-11-20T16:14:30.038Z,5.63
2022-11-20T16:16:56.851Z,8.17
2022-11-20T16:19:23.761Z,9.20
2022-11-20T16:21:50.555Z,10.40
2022-11-20T16:24:17.408Z,10.80
2022-11-20T16:26:44.555Z,10.53
2022-11-20T16:29:11.813Z,9.63
2022-11-20T16:31:39.000Z,4.73
2022-11-20T16:34:11.817Z,8.17
2022-11-20T16:36:43.292Z,11.13
2022-11-20T16:39:10.570Z,10.90
2022-11-20T16:41:37.659Z,11.97
2022-11-20T16:44:09.285Z,11.43
2022-11-20T16:46:36.451Z,12.87
2022-11-20T16:49:07.232Z,21.50
2022-11-20T16:51:37.446Z,6.23
2022-11-20T16:54:06.081Z,13.33
2022-11-20T16:56:33.253Z,10.33
2022-11-20T16:59:00.901Z,9.10
2022-11-20T17:01:29.118Z,8.43
2022-11-20T17:04:01.112Z,12.07
2022-11-20T17:06:32.494Z,11.57
2022-11-20T17:08:59.670Z,11.83
2022-11-20T17:11:27.527Z,12.13
2022-11-20T17:14:00.775Z,11.70
2022-11-20T17:16:27.863Z,12.50
2022-11-20T17:19:01.300Z,13.70
2022-11-20T17:21:31.076Z,20.23
2022-11-20T17:24:02.510Z,10.83
2022-11-20T17:26:29.727Z,10.70
2022-11-20T17:29:06.337Z,7.77
2022-11-20T17:31:35.982Z,13.70
2022-11-20T17:34:02.787Z,7.00
2022-11-20T17:36:30.644Z,8.73
2022-11-20T17:38:58.046Z,5.80
2022-11-20T17:41:26.878Z,5.43
2022-11-20T17:43:57.752Z,8.30
2022-11-20T17:46:27.035Z,5.23
2022-11-20T17:48:54.206Z,7.77
2022-11-20T17:51:23.847Z,4.50
2022-11-20T17:53:53.024Z,8.10
2022-11-20T17:56:38.948Z,4.17
2022-11-20T17:59:09.412Z,4.97
2022-11-20T18:01:36.345Z,4.87
2022-11-20T18:04:03.522Z,7.23
2022-11-20T18:06:31.181Z,6.33
2022-11-20T18:08:59.337Z,8.80
2022-11-20T18:11:28.113Z,12.67
2022-11-20T18:14:15.777Z,10.10
2022-11-20T18:16:52.046Z,16.70
2022-11-20T18:19:21.024Z,18.47
2022-11-20T18:21:47.945Z,11.00
2022-11-20T18:24:15.325Z,17.10
2022-11-20T18:26:44.512Z,5.83
2022-11-20T18:29:13.038Z,8.47
2022-11-20T18:31:40.659Z,8.10
2022-11-20T18:34:11.727Z,6.63
2022-11-20T18:36:39.785Z,6.33
2022-11-20T18:39:07.035Z,6.83
2022-11-20T18:41:52.829Z,4.87
2022-11-20T18:44:41.551Z,8.63
2022-11-20T18:47:14.464Z,8.60
2022-11-20T18:49:42.962Z,13.53
2022-11-20T18:52:14.901Z,18.73
2022-11-20T18:54:48.507Z,15.73
2022-11-20T18:57:19.476Z,14.93
2022-11-20T18:59:46.420Z,13.20
2022-11-20T19:02:15.134Z,11.37
2022-11-20T19:04:42.933Z,15.07
2022-11-20T19:07:12.211Z,16.03
2022-11-20T19:09:42.819Z,11.63
2022-11-20T19:12:11.448Z,15.30
2022-11-20T19:14:39.012Z,24.00
2022-11-20T19:17:06.965Z,10.67
2022-11-20T19:19:35.235Z,12.50
2022-11-20T19:22:02.579Z,16.73
2022-11-20T19:24:29.457Z,11.73
2022-11-20T19:26:57.348Z,13.83
2022-11-20T19:29:25.749Z,20.83
2022-11-20T19:31:53.944Z,18.83
2022-11-20T19:34:20.779Z,17.10
2022-11-20T19:36:47.689Z,18.50
2022-11-20T19:39:14.423Z,21.47
2022-11-20T19:41:42.766Z,18.70
2022-11-20T19:44:14.482Z,17.93
2022-11-20T19:46:41.722Z,12.23
2022-11-20T19:49:10.526Z,14.10
2022-11-20T19:51:39.415Z,23.60
2022-11-20T19:54:06.706Z,14.17
2022-11-20T19:56:34.429Z,17.77
2022-11-20T19:59:04.414Z,15.17
2022-11-20T20:01:31.943Z,17.13
2022-11-20T20:04:05.473Z,19.27
2022-11-20T20:06:35.005Z,13.03
2022-11-20T20:09:07.307Z,15.87
2022-11-20T20:11:34.871Z,16.00
2022-11-20T20:14:09.721Z,23.17
2022-11-20T20:16:36.618Z,18.33
2022-11-20T20:19:04.758Z,14.93
2022-11-20T20:21:36.652Z,19.33
2022-11-20T20:24:04.638Z,18.63
2022-11-20T20:26:32.328Z,22.17
2022-11-20T20:29:00.908Z,15.97
2022-11-20T20:31:32.039Z,21.13
2022-11-20T20:33:59.079Z,15.63
2022-11-20T20:36:25.983Z,23.00
2022-11-20T20:38:56.960Z,16.00
2022-11-20T20:41:24.951Z,19.03
2022-11-20T20:44:11.234Z,15.47
2022-11-20T20:46:38.468Z,20.33
2022-11-20T20:49:05.592Z,19.90
2022-11-20T20:51:32.474Z,21.43
2022-11-20T20:53:59.603Z,14.27
2022-11-20T20:56:26.796Z,16.70
2022-11-20T20:58:54.215Z,15.33
2022-11-20T21:01:21.609Z,22.97
2022-11-20T21:03:48.556Z,17.67
2022-11-20T21:06:15.328Z,23.10
2022-11-20T21:08:46.218Z,15.33
2022-11-20T21:11:16.255Z,26.27
2022-11-20T21:13:44.613Z,21.67
2022-11-20T21:16:19.015Z,17.97
2022-11-20T21:18:46.056Z,19.77
2022-11-20T21:21:33.490Z,18.20
2022-11-20T21:24:01.555Z,26.90
2022-11-20T21:26:28.825Z,20.07
2022-11-20T21:28:57.575Z,20.67
2022-11-20T21:31:27.083Z,16.17
2022-11-20T21:33:55.330Z,24.17
2022-11-20T21:36:27.325Z,12.30
2022-11-20T21:38:56.112Z,16.30
2022-11-20T21:41:24.323Z,18.00
2022-11-20T21:44:23.715Z,22.40
2022-11-20T21:46:43.892Z,13.00
2022-11-20T21:49:11.342Z,17.23
2022-11-20T21:51:38.351Z,19.93
2022-11-20T21:54:05.123Z,18.47
2022-11-20T21:56:32.038Z,23.33
2022-11-20T21:58:59.051Z,20.07
2022-11-20T22:01:28.483Z,15.63
2022-11-20T22:04:05.241Z,15.77
2022-11-20T22:06:34.610Z,17.30
2022-11-20T22:09:02.637Z,16.90
2022-11-20T22:11:35.608Z,9.90
2022-11-20T22:14:21.158Z,19.67
2022-11-20T22:16:50.956Z,13.50
2022-11-20T22:19:19.157Z,16.83
2022-11-20T22:21:46.097Z,13.73
2022-11-20T22:24:22.822Z,15.73
2022-11-20T22:26:53.028Z,15.43
2022-11-20T22:29:23.232Z,14.90
2022-11-20T22:31:53.856Z,19.17
2022-11-20T22:34:21.182Z,15.83
2022-11-20T22:36:48.455Z,10.53
2022-11-20T22:39:17.767Z,12.73
2022-11-20T22:41:45.104Z,10.87
2022-11-20T22:44:16.438Z,8.63
2022-11-20T22:46:45.209Z,10.83
2022-11-20T22:49:12.067Z,9.80
2022-11-20T22:51:44.132Z,15.17
2022-11-20T22:54:13.137Z,12.63
2022-11-20T22:56:44.774Z,8.17
2022-11-20T22:59:11.686Z,12.80
2022-11-20T23:01:38.809Z,10.27
2022-11-20T23:04:08.546Z,10.23
2022-11-20T23:06:36.055Z,10.17
2022-11-20T23:09:05.046Z,11.80
2022-11-20T23:11:32.727Z,10.47
2022-11-20T23:14:05.638Z,8.50
2022-11-20T23:16:33.486Z,8.77
2022-11-20T23:19:06.476Z,10.40
2022-11-20T23:21:34.812Z,11.23
2022-11-20T23:24:02.040Z,13.07
2022-11-20T23:26:31.079Z,13.90
2022-11-20T23:28:59.546Z,12.53
2022-11-20T23:31:28.963Z,10.40
2022-11-20T23:33:55.808Z,6.83
2022-11-20T23:36:22.771Z,8.10
2022-11-20T23:38:49.617Z,4.43
2022-11-20T23:41:16.965Z,7.07
2022-11-20T23:43:43.837Z,6.33
2022-11-20T23:46:15.238Z,9.20
2022-11-20T23:48:44.892Z,5.20
2022-11-20T23:51:11.896Z,3.37
2022-11-20T23:53:38.951Z,2.57
2022-11-20T23:56:06.205Z,6.87
2022-11-20T23:58:35.523Z,1.63
